sensor_id;sensor_type;location;lat;lon;timestamp;temperature;humidity
21167;DHT22;10741;52.272;9.580;2023-04-24T00:01:29;12.40;99.90
21167;DHT22;10741;52.272;9.580;2023-04-24T00:03:55;12.30;99.90
21167;DHT22;10741;52.272;9.580;2023-04-24T00:06:25;12.30;99.90
21167;DHT22;10741;52.272;9.580;2023-04-24T00:08:59;12.20;99.90
21167;DHT22;10741;52.272;9.580;2023-04-24T00:11:26;12.20;99.90
21167;DHT22;10741;52.272;9.580;2023-04-24T00:13:52;12.10;99.90
21167;DHT22;10741;52.272;9.580;2023-04-24T00:16:18;12.20;99.90
21167;DHT22;10741;52.272;9.580;2023-04-24T00:18:44;12.30;99.90
21167;DHT22;10741;52.272;9.580;2023-04-24T00:21:11;12.30;99.90
21167;DHT22;10741;52.272;9.580;2023-04-24T00:23:36;12.30;99.90
21167;DHT22;10741;52.272;9.580;2023-04-24T00:26:02;12.30;99.90
21167;DHT22;10741;52.272;9.580;2023-04-24T00:28:28;12.30;99.90
21167;DHT22;10741;52.272;9.580;2023-04-24T00:30:54;12.20;99.90
21167;DHT22;10741;52.272;9.580;2023-04-24T00:33:20;12.20;99.90
21167;DHT22;10741;52.272;9.580;2023-04-24T00:35:46;12.20;99.90
21167;DHT22;10741;52.272;9.580;2023-04-24T00:38:11;12.10;99.90
21167;DHT22;10741;52.272;9.580;2023-04-24T00:40:37;12.10;99.90
21167;DHT22;10741;52.272;9.580;2023-04-24T00:43:03;12.00;99.90
21167;DHT22;10741;52.272;9.580;2023-04-24T00:45:29;12.00;99.90
21167;DHT22;10741;52.272;9.580;2023-04-24T00:47:57;12.00;99.90
21167;DHT22;10741;52.272;9.580;2023-04-24T00:50:24;11.90;99.90
21167;DHT22;10741;52.272;9.580;2023-04-24T00:52:50;12.10;99.90
21167;DHT22;10741;52.272;9.580;2023-04-24T00:55:17;12.00;99.90
21167;DHT22;10741;52.272;9.580;2023-04-24T00:57:43;12.00;99.90
21167;DHT22;10741;52.272;9.580;2023-04-24T01:00:10;12.00;99.90
21167;DHT22;10741;52.272;9.580;2023-04-24T01:02:40;11.90;99.90
21167;DHT22;10741;52.272;9.580;2023-04-24T01:05:09;11.90;99.90
21167;DHT22;10741;52.272;9.580;2023-04-24T01:07:35;11.90;99.90
21167;DHT22;10741;52.272;9.580;2023-04-24T01:10:01;11.80;99.90
21167;DHT22;10741;52.272;9.580;2023-04-24T01:12:27;11.80;99.90
21167;DHT22;10741;52.272;9.580;2023-04-24T01:14:54;11.60;99.90
21167;DHT22;10741;52.272;9.580;2023-04-24T01:17:20;11.60;99.90
21167;DHT22;10741;52.272;9.580;2023-04-24T01:19:46;11.60;99.90
21167;DHT22;10741;52.272;9.580;2023-04-24T01:22:15;11.60;99.90
21167;DHT22;10741;52.272;9.580;2023-04-24T01:24:42;11.40;99.90
21167;DHT22;10741;52.272;9.580;2023-04-24T01:27:09;11.30;99.90
21167;DHT22;10741;52.272;9.580;2023-04-24T01:29:36;11.30;99.90
21167;DHT22;10741;52.272;9.580;2023-04-24T01:32:03;11.20;99.90
21167;DHT22;10741;52.272;9.580;2023-04-24T01:34:29;11.20;99.90
21167;DHT22;10741;52.272;9.580;2023-04-24T01:36:55;11.10;99.90
21167;DHT22;10741;52.272;9.580;2023-04-24T01:39:22;10.90;99.90
21167;DHT22;10741;52.272;9.580;2023-04-24T01:41:54;10.80;99.90
21167;DHT22;10741;52.272;9.580;2023-04-24T01:44:20;10.70;99.90
21167;DHT22;10741;52.272;9.580;2023-04-24T01:46:46;10.60;99.90
21167;DHT22;10741;52.272;9.580;2023-04-24T01:49:12;10.50;99.90
21167;DHT22;10741;52.272;9.580;2023-04-24T01:51:38;10.50;99.90
21167;DHT22;10741;52.272;9.580;2023-04-24T01:54:04;10.40;99.90
21167;DHT22;10741;52.272;9.580;2023-04-24T01:56:33;10.40;99.90
21167;DHT22;10741;52.272;9.580;2023-04-24T01:58:59;10.50;99.90
21167;DHT22;10741;52.272;9.580;2023-04-24T02:01:25;10.70;99.90
21167;DHT22;10741;52.272;9.580;2023-04-24T02:03:51;10.70;99.90
21167;DHT22;10741;52.272;9.580;2023-04-24T02:06:17;10.80;99.90
21167;DHT22;10741;52.272;9.580;2023-04-24T02:08:43;10.80;99.90
21167;DHT22;10741;52.272;9.580;2023-04-24T02:11:09;10.80;99.90
21167;DHT22;10741;52.272;9.580;2023-04-24T02:13:35;10.80;99.90
21167;DHT22;10741;52.272;9.580;2023-04-24T02:16:01;10.80;99.90
21167;DHT22;10741;52.272;9.580;2023-04-24T02:18:27;10.80;99.90
21167;DHT22;10741;52.272;9.580;2023-04-24T02:20:52;10.80;99.90
21167;DHT22;10741;52.272;9.580;2023-04-24T02:23:18;10.70;99.90
21167;DHT22;10741;52.272;9.580;2023-04-24T02:25:44;10.80;99.90
21167;DHT22;10741;52.272;9.580;2023-04-24T02:28:10;10.90;99.90
21167;DHT22;10741;52.272;9.580;2023-04-24T02:30:35;10.90;99.90
21167;DHT22;10741;52.272;9.580;2023-04-24T02:33:01;10.90;99.90
21167;DHT22;10741;52.272;9.580;2023-04-24T02:35:27;10.80;99.90
21167;DHT22;10741;52.272;9.580;2023-04-24T02:37:52;10.70;99.90
21167;DHT22;10741;52.272;9.580;2023-04-24T02:40:18;10.70;99.90
21167;DHT22;10741;52.272;9.580;2023-04-24T02:42:44;10.60;99.90
21167;DHT22;10741;52.272;9.580;2023-04-24T02:45:10;10.70;99.90
21167;DHT22;10741;52.272;9.580;2023-04-24T02:47:36;10.60;99.90
21167;DHT22;10741;52.272;9.580;2023-04-24T02:50:02;10.70;99.90
21167;DHT22;10741;52.272;9.580;2023-04-24T02:52:28;10.90;99.90
21167;DHT22;10741;52.272;9.580;2023-04-24T02:54:54;10.90;99.90
21167;DHT22;10741;52.272;9.580;2023-04-24T02:57:20;10.90;99.90
21167;DHT22;10741;52.272;9.580;2023-04-24T02:59:45;10.90;99.90
21167;DHT22;10741;52.272;9.580;2023-04-24T03:02:11;10.90;99.90
21167;DHT22;10741;52.272;9.580;2023-04-24T03:04:37;10.90;99.90
21167;DHT22;10741;52.272;9.580;2023-04-24T03:07:02;10.90;99.90
21167;DHT22;10741;52.272;9.580;2023-04-24T03:09:28;10.90;99.90
21167;DHT22;10741;52.272;9.580;2023-04-24T03:11:54;10.90;99.90
21167;DHT22;10741;52.272;9.580;2023-04-24T03:14:20;10.70;99.90
21167;DHT22;10741;52.272;9.580;2023-04-24T03:16:46;10.80;99.90
21167;DHT22;10741;52.272;9.580;2023-04-24T03:19:12;10.80;99.90
21167;DHT22;10741;52.272;9.580;2023-04-24T03:21:38;10.70;99.90
21167;DHT22;10741;52.272;9.580;2023-04-24T03:24:09;10.60;99.90
21167;DHT22;10741;52.272;9.580;2023-04-24T03:26:35;10.60;99.90
21167;DHT22;10741;52.272;9.580;2023-04-24T03:29:01;10.50;99.90
21167;DHT22;10741;52.272;9.580;2023-04-24T03:31:27;10.40;99.90
21167;DHT22;10741;52.272;9.580;2023-04-24T03:33:52;10.30;99.90
21167;DHT22;10741;52.272;9.580;2023-04-24T03:36:18;10.20;99.90
21167;DHT22;10741;52.272;9.580;2023-04-24T03:38:44;10.20;99.90
21167;DHT22;10741;52.272;9.580;2023-04-24T03:41:11;10.20;99.90
21167;DHT22;10741;52.272;9.580;2023-04-24T03:43:37;10.20;99.90
21167;DHT22;10741;52.272;9.580;2023-04-24T03:46:03;10.20;99.90
21167;DHT22;10741;52.272;9.580;2023-04-24T03:48:29;10.30;99.90
21167;DHT22;10741;52.272;9.580;2023-04-24T03:50:55;10.30;99.90
21167;DHT22;10741;52.272;9.580;2023-04-24T03:53:21;10.40;99.90
21167;DHT22;10741;52.272;9.580;2023-04-24T03:55:47;10.40;99.90
21167;DHT22;10741;52.272;9.580;2023-04-24T03:58:13;10.50;99.90
21167;DHT22;10741;52.272;9.580;2023-04-24T04:00:41;10.40;99.90
21167;DHT22;10741;52.272;9.580;2023-04-24T04:03:07;10.30;99.90
21167;DHT22;10741;52.272;9.580;2023-04-24T04:05:33;10.40;99.90
21167;DHT22;10741;52.272;9.580;2023-04-24T04:07:58;10.50;99.90
21167;DHT22;10741;52.272;9.580;2023-04-24T04:10:24;10.40;99.90
21167;DHT22;10741;52.272;9.580;2023-04-24T04:12:51;10.40;99.90
21167;DHT22;10741;52.272;9.580;2023-04-24T04:15:17;10.40;99.90
21167;DHT22;10741;52.272;9.580;2023-04-24T04:17:43;10.30;99.90
21167;DHT22;10741;52.272;9.580;2023-04-24T04:20:09;10.30;99.90
21167;DHT22;10741;52.272;9.580;2023-04-24T04:22:36;10.40;99.90
21167;DHT22;10741;52.272;9.580;2023-04-24T04:25:03;10.50;99.90
21167;DHT22;10741;52.272;9.580;2023-04-24T04:27:29;10.50;99.90
21167;DHT22;10741;52.272;9.580;2023-04-24T04:29:58;10.40;99.90
21167;DHT22;10741;52.272;9.580;2023-04-24T04:32:26;10.40;99.90
21167;DHT22;10741;52.272;9.580;2023-04-24T04:34:52;10.40;99.90
21167;DHT22;10741;52.272;9.580;2023-04-24T04:37:18;10.40;99.90
21167;DHT22;10741;52.272;9.580;2023-04-24T04:39:44;10.30;99.90
21167;DHT22;10741;52.272;9.580;2023-04-24T04:42:10;10.30;99.90
21167;DHT22;10741;52.272;9.580;2023-04-24T04:44:36;10.30;99.90
21167;DHT22;10741;52.272;9.580;2023-04-24T04:47:02;10.30;99.90
21167;DHT22;10741;52.272;9.580;2023-04-24T04:49:31;10.20;99.90
21167;DHT22;10741;52.272;9.580;2023-04-24T04:51:57;10.20;99.90
21167;DHT22;10741;52.272;9.580;2023-04-24T04:54:22;10.20;99.90
21167;DHT22;10741;52.272;9.580;2023-04-24T04:56:51;10.20;99.90
21167;DHT22;10741;52.272;9.580;2023-04-24T04:59:17;10.30;99.90
21167;DHT22;10741;52.272;9.580;2023-04-24T05:01:43;10.40;99.90
21167;DHT22;10741;52.272;9.580;2023-04-24T05:04:08;10.50;99.90
21167;DHT22;10741;52.272;9.580;2023-04-24T05:06:34;10.50;99.90
21167;DHT22;10741;52.272;9.580;2023-04-24T05:09:00;10.50;99.90
21167;DHT22;10741;52.272;9.580;2023-04-24T05:11:26;10.50;99.90
21167;DHT22;10741;52.272;9.580;2023-04-24T05:13:51;10.60;99.90
21167;DHT22;10741;52.272;9.580;2023-04-24T05:16:17;10.60;99.90
21167;DHT22;10741;52.272;9.580;2023-04-24T05:18:43;10.70;99.90
21167;DHT22;10741;52.272;9.580;2023-04-24T05:21:09;10.70;99.90
21167;DHT22;10741;52.272;9.580;2023-04-24T05:23:35;10.80;99.90
21167;DHT22;10741;52.272;9.580;2023-04-24T05:26:00;10.90;99.90
21167;DHT22;10741;52.272;9.580;2023-04-24T05:28:26;11.10;99.90
21167;DHT22;10741;52.272;9.580;2023-04-24T05:30:55;11.20;99.90
21167;DHT22;10741;52.272;9.580;2023-04-24T05:33:25;11.30;99.90
21167;DHT22;10741;52.272;9.580;2023-04-24T05:35:51;11.40;99.90
21167;DHT22;10741;52.272;9.580;2023-04-24T05:38:16;11.40;99.90
21167;DHT22;10741;52.272;9.580;2023-04-24T05:40:45;11.40;99.90
21167;DHT22;10741;52.272;9.580;2023-04-24T05:43:12;11.40;99.90
21167;DHT22;10741;52.272;9.580;2023-04-24T05:45:38;11.40;99.90
21167;DHT22;10741;52.272;9.580;2023-04-24T05:48:04;11.40;99.90
21167;DHT22;10741;52.272;9.580;2023-04-24T05:50:30;11.40;99.90
21167;DHT22;10741;52.272;9.580;2023-04-24T05:52:55;11.40;99.90
21167;DHT22;10741;52.272;9.580;2023-04-24T05:55:26;11.40;99.90
21167;DHT22;10741;52.272;9.580;2023-04-24T05:57:52;11.30;99.90
21167;DHT22;10741;52.272;9.580;2023-04-24T06:00:18;11.30;99.90
21167;DHT22;10741;52.272;9.580;2023-04-24T06:02:45;11.30;99.90
21167;DHT22;10741;52.272;9.580;2023-04-24T06:05:11;11.30;99.90
21167;DHT22;10741;52.272;9.580;2023-04-24T06:07:37;11.30;99.90
21167;DHT22;10741;52.272;9.580;2023-04-24T06:10:03;11.30;99.90
21167;DHT22;10741;52.272;9.580;2023-04-24T06:12:29;11.30;99.90
21167;DHT22;10741;52.272;9.580;2023-04-24T06:14:55;11.30;99.90
21167;DHT22;10741;52.272;9.580;2023-04-24T06:17:23;11.30;99.90
21167;DHT22;10741;52.272;9.580;2023-04-24T06:19:49;11.30;99.90
21167;DHT22;10741;52.272;9.580;2023-04-24T06:22:15;11.40;99.90
21167;DHT22;10741;52.272;9.580;2023-04-24T06:24:41;11.50;99.90
21167;DHT22;10741;52.272;9.580;2023-04-24T06:27:06;11.70;99.90
21167;DHT22;10741;52.272;9.580;2023-04-24T06:29:33;12.00;99.90
21167;DHT22;10741;52.272;9.580;2023-04-24T06:31:59;12.20;99.90
21167;DHT22;10741;52.272;9.580;2023-04-24T06:34:25;12.30;99.90
21167;DHT22;10741;52.272;9.580;2023-04-24T06:36:51;12.40;99.90
21167;DHT22;10741;52.272;9.580;2023-04-24T06:39:17;12.40;99.90
21167;DHT22;10741;52.272;9.580;2023-04-24T06:41:42;12.30;99.90
21167;DHT22;10741;52.272;9.580;2023-04-24T06:44:08;12.20;99.90
21167;DHT22;10741;52.272;9.580;2023-04-24T06:46:34;12.10;99.90
21167;DHT22;10741;52.272;9.580;2023-04-24T06:49:00;12.00;99.90
21167;DHT22;10741;52.272;9.580;2023-04-24T06:51:26;11.80;99.90
21167;DHT22;10741;52.272;9.580;2023-04-24T06:53:53;11.70;99.90
21167;DHT22;10741;52.272;9.580;2023-04-24T06:56:19;11.70;99.90
21167;DHT22;10741;52.272;9.580;2023-04-24T06:58:45;11.70;99.90
21167;DHT22;10741;52.272;9.580;2023-04-24T07:01:11;11.70;99.90
21167;DHT22;10741;52.272;9.580;2023-04-24T07:03:37;11.70;99.90
21167;DHT22;10741;52.272;9.580;2023-04-24T07:06:04;11.80;99.90
21167;DHT22;10741;52.272;9.580;2023-04-24T07:08:30;11.90;99.90
21167;DHT22;10741;52.272;9.580;2023-04-24T07:10:57;12.00;99.90
21167;DHT22;10741;52.272;9.580;2023-04-24T07:13:23;12.10;99.90
21167;DHT22;10741;52.272;9.580;2023-04-24T07:15:49;12.10;99.90
21167;DHT22;10741;52.272;9.580;2023-04-24T07:18:20;12.20;99.90
21167;DHT22;10741;52.272;9.580;2023-04-24T07:20:46;12.40;99.90
21167;DHT22;10741;52.272;9.580;2023-04-24T07:23:11;12.60;99.90
21167;DHT22;10741;52.272;9.580;2023-04-24T07:25:37;12.80;99.90
21167;DHT22;10741;52.272;9.580;2023-04-24T07:28:04;13.10;99.90
21167;DHT22;10741;52.272;9.580;2023-04-24T07:30:30;13.30;99.90
21167;DHT22;10741;52.272;9.580;2023-04-24T07:32:58;13.40;99.90
21167;DHT22;10741;52.272;9.580;2023-04-24T07:35:25;13.30;99.90
21167;DHT22;10741;52.272;9.580;2023-04-24T07:37:54;13.30;99.90
21167;DHT22;10741;52.272;9.580;2023-04-24T07:40:21;13.40;99.90
21167;DHT22;10741;52.272;9.580;2023-04-24T07:42:47;13.30;99.90
21167;DHT22;10741;52.272;9.580;2023-04-24T07:45:16;13.20;99.90
21167;DHT22;10741;52.272;9.580;2023-04-24T07:47:42;13.10;99.90
21167;DHT22;10741;52.272;9.580;2023-04-24T07:50:12;13.20;99.90
21167;DHT22;10741;52.272;9.580;2023-04-24T07:52:38;13.30;99.90
21167;DHT22;10741;52.272;9.580;2023-04-24T07:55:04;13.40;99.90
21167;DHT22;10741;52.272;9.580;2023-04-24T07:57:30;13.30;99.90
21167;DHT22;10741;52.272;9.580;2023-04-24T07:59:56;13.30;99.90
21167;DHT22;10741;52.272;9.580;2023-04-24T08:02:22;13.20;99.90
21167;DHT22;10741;52.272;9.580;2023-04-24T08:04:52;12.90;99.90
21167;DHT22;10741;52.272;9.580;2023-04-24T08:07:19;12.70;99.90
21167;DHT22;10741;52.272;9.580;2023-04-24T08:09:45;12.50;99.90
21167;DHT22;10741;52.272;9.580;2023-04-24T08:12:11;12.50;99.90
21167;DHT22;10741;52.272;9.580;2023-04-24T08:14:37;12.50;99.90
21167;DHT22;10741;52.272;9.580;2023-04-24T08:17:02;12.40;99.90
21167;DHT22;10741;52.272;9.580;2023-04-24T08:19:29;12.30;99.90
21167;DHT22;10741;52.272;9.580;2023-04-24T08:21:54;12.20;99.90
21167;DHT22;10741;52.272;9.580;2023-04-24T08:24:22;12.30;99.90
21167;DHT22;10741;52.272;9.580;2023-04-24T08:26:48;12.40;99.90
21167;DHT22;10741;52.272;9.580;2023-04-24T08:29:16;12.60;99.90
21167;DHT22;10741;52.272;9.580;2023-04-24T08:31:41;13.20;99.90
21167;DHT22;10741;52.272;9.580;2023-04-24T08:34:08;14.10;99.90
21167;DHT22;10741;52.272;9.580;2023-04-24T08:36:34;14.90;99.90
21167;DHT22;10741;52.272;9.580;2023-04-24T08:39:00;15.00;99.90
21167;DHT22;10741;52.272;9.580;2023-04-24T08:41:27;15.30;99.90
21167;DHT22;10741;52.272;9.580;2023-04-24T08:43:53;15.20;99.90
21167;DHT22;10741;52.272;9.580;2023-04-24T08:46:20;15.50;99.90
21167;DHT22;10741;52.272;9.580;2023-04-24T08:48:47;15.50;99.90
21167;DHT22;10741;52.272;9.580;2023-04-24T08:51:13;15.40;99.90
21167;DHT22;10741;52.272;9.580;2023-04-24T08:53:40;15.20;99.90
21167;DHT22;10741;52.272;9.580;2023-04-24T08:56:06;14.80;99.90
21167;DHT22;10741;52.272;9.580;2023-04-24T08:58:33;14.30;99.90
21167;DHT22;10741;52.272;9.580;2023-04-24T09:00:59;14.30;99.90
21167;DHT22;10741;52.272;9.580;2023-04-24T09:03:27;14.40;99.90
21167;DHT22;10741;52.272;9.580;2023-04-24T09:05:55;14.40;99.90
21167;DHT22;10741;52.272;9.580;2023-04-24T09:08:24;14.40;99.90
21167;DHT22;10741;52.272;9.580;2023-04-24T09:10:51;14.10;99.90
21167;DHT22;10741;52.272;9.580;2023-04-24T09:13:18;13.80;99.90
21167;DHT22;10741;52.272;9.580;2023-04-24T09:15:44;13.70;99.90
21167;DHT22;10741;52.272;9.580;2023-04-24T09:18:10;13.50;99.90
21167;DHT22;10741;52.272;9.580;2023-04-24T09:23:30;13.40;99.90
21167;DHT22;10741;52.272;9.580;2023-04-24T09:25:57;13.30;99.90
21167;DHT22;10741;52.272;9.580;2023-04-24T09:28:32;13.10;99.90
21167;DHT22;10741;52.272;9.580;2023-04-24T09:31:13;13.10;99.90
21167;DHT22;10741;52.272;9.580;2023-04-24T09:33:40;13.40;99.90
21167;DHT22;10741;52.272;9.580;2023-04-24T09:36:06;14.10;99.90
21167;DHT22;10741;52.272;9.580;2023-04-24T09:38:38;14.10;99.90
21167;DHT22;10741;52.272;9.580;2023-04-24T09:41:08;14.10;99.90
21167;DHT22;10741;52.272;9.580;2023-04-24T09:43:34;14.10;99.90
21167;DHT22;10741;52.272;9.580;2023-04-24T09:46:06;14.10;99.90
21167;DHT22;10741;52.272;9.580;2023-04-24T09:48:37;13.90;99.90
21167;DHT22;10741;52.272;9.580;2023-04-24T09:51:04;13.50;99.90
21167;DHT22;10741;52.272;9.580;2023-04-24T09:53:32;13.50;99.90
21167;DHT22;10741;52.272;9.580;2023-04-24T09:56:10;13.40;99.90
21167;DHT22;10741;52.272;9.580;2023-04-24T09:58:38;13.30;99.90
21167;DHT22;10741;52.272;9.580;2023-04-24T10:01:04;13.40;99.90
21167;DHT22;10741;52.272;9.580;2023-04-24T10:03:31;13.30;99.90
21167;DHT22;10741;52.272;9.580;2023-04-24T10:06:01;13.40;99.90
21167;DHT22;10741;52.272;9.580;2023-04-24T10:08:33;13.30;99.90
21167;DHT22;10741;52.272;9.580;2023-04-24T10:11:00;13.10;99.90
21167;DHT22;10741;52.272;9.580;2023-04-24T10:13:26;13.00;99.90
21167;DHT22;10741;52.272;9.580;2023-04-24T10:15:53;12.80;99.90
21167;DHT22;10741;52.272;9.580;2023-04-24T10:18:20;12.70;99.90
21167;DHT22;10741;52.272;9.580;2023-04-24T10:20:47;12.70;99.90
21167;DHT22;10741;52.272;9.580;2023-04-24T10:23:13;12.70;99.90
21167;DHT22;10741;52.272;9.580;2023-04-24T10:25:39;12.70;99.90
21167;DHT22;10741;52.272;9.580;2023-04-24T10:28:06;12.60;99.90
21167;DHT22;10741;52.272;9.580;2023-04-24T10:30:34;12.50;99.90
21167;DHT22;10741;52.272;9.580;2023-04-24T10:33:04;12.60;99.90
21167;DHT22;10741;52.272;9.580;2023-04-24T10:35:32;12.60;99.90
21167;DHT22;10741;52.272;9.580;2023-04-24T10:38:09;12.70;99.90
21167;DHT22;10741;52.272;9.580;2023-04-24T10:40:36;12.70;99.90
21167;DHT22;10741;52.272;9.580;2023-04-24T10:43:04;12.70;99.90
21167;DHT22;10741;52.272;9.580;2023-04-24T10:45:32;12.60;99.90
21167;DHT22;10741;52.272;9.580;2023-04-24T10:48:04;12.70;99.90
21167;DHT22;10741;52.272;9.580;2023-04-24T10:50:52;12.80;99.90
21167;DHT22;10741;52.272;9.580;2023-04-24T10:53:20;12.90;99.90
21167;DHT22;10741;52.272;9.580;2023-04-24T10:58:35;13.00;99.90
21167;DHT22;10741;52.272;9.580;2023-04-24T11:01:01;13.00;99.90
21167;DHT22;10741;52.272;9.580;2023-04-24T11:03:28;12.90;99.90
21167;DHT22;10741;52.272;9.580;2023-04-24T11:06:03;12.70;99.90
21167;DHT22;10741;52.272;9.580;2023-04-24T11:08:43;12.50;99.90
21167;DHT22;10741;52.272;9.580;2023-04-24T11:11:15;12.70;99.90
21167;DHT22;10741;52.272;9.580;2023-04-24T11:16:29;14.10;99.90
21167;DHT22;10741;52.272;9.580;2023-04-24T11:19:03;14.70;99.90
21167;DHT22;10741;52.272;9.580;2023-04-24T11:29:59;14.50;99.90
21167;DHT22;10741;52.272;9.580;2023-04-24T11:32:41;14.10;99.90
21167;DHT22;10741;52.272;9.580;2023-04-24T11:35:16;13.80;99.90
21167;DHT22;10741;52.272;9.580;2023-04-24T11:37:44;13.90;99.90
21167;DHT22;10741;52.272;9.580;2023-04-24T11:40:15;14.10;99.90
21167;DHT22;10741;52.272;9.580;2023-04-24T11:42:46;14.10;99.90
21167;DHT22;10741;52.272;9.580;2023-04-24T11:45:14;14.00;99.90
21167;DHT22;10741;52.272;9.580;2023-04-24T11:47:42;13.80;99.90
21167;DHT22;10741;52.272;9.580;2023-04-24T11:50:10;13.50;99.90
21167;DHT22;10741;52.272;9.580;2023-04-24T11:52:40;13.30;99.90
21167;DHT22;10741;52.272;9.580;2023-04-24T11:55:09;13.20;99.90
21167;DHT22;10741;52.272;9.580;2023-04-24T11:57:55;12.90;99.90
21167;DHT22;10741;52.272;9.580;2023-04-24T12:00:32;12.70;99.90
21167;DHT22;10741;52.272;9.580;2023-04-24T12:05:31;12.70;99.90
21167;DHT22;10741;52.272;9.580;2023-04-24T12:07:57;13.10;99.90
21167;DHT22;10741;52.272;9.580;2023-04-24T12:10:24;13.70;99.90
21167;DHT22;10741;52.272;9.580;2023-04-24T12:12:50;14.10;99.90
21167;DHT22;10741;52.272;9.580;2023-04-24T12:15:20;14.20;99.90
21167;DHT22;10741;52.272;9.580;2023-04-24T12:17:47;14.90;99.90
21167;DHT22;10741;52.272;9.580;2023-04-24T12:20:14;15.40;99.90
21167;DHT22;10741;52.272;9.580;2023-04-24T12:22:59;15.10;99.90
21167;DHT22;10741;52.272;9.580;2023-04-24T12:25:29;14.90;99.90
21167;DHT22;10741;52.272;9.580;2023-04-24T12:30:47;15.00;99.90
21167;DHT22;10741;52.272;9.580;2023-04-24T12:33:21;15.00;99.90
21167;DHT22;10741;52.272;9.580;2023-04-24T12:35:48;14.20;99.90
21167;DHT22;10741;52.272;9.580;2023-04-24T12:38:21;13.90;99.90
21167;DHT22;10741;52.272;9.580;2023-04-24T12:40:47;13.60;99.90
21167;DHT22;10741;52.272;9.580;2023-04-24T12:43:17;13.50;99.90
21167;DHT22;10741;52.272;9.580;2023-04-24T12:45:44;13.20;99.90
21167;DHT22;10741;52.272;9.580;2023-04-24T12:48:10;13.00;99.90
21167;DHT22;10741;52.272;9.580;2023-04-24T12:50:36;12.80;99.90
21167;DHT22;10741;52.272;9.580;2023-04-24T12:53:03;12.90;99.90
21167;DHT22;10741;52.272;9.580;2023-04-24T12:55:28;12.70;99.90
21167;DHT22;10741;52.272;9.580;2023-04-24T12:57:54;12.40;99.90
21167;DHT22;10741;52.272;9.580;2023-04-24T13:00:21;12.20;99.90
21167;DHT22;10741;52.272;9.580;2023-04-24T13:02:47;12.10;99.90
21167;DHT22;10741;52.272;9.580;2023-04-24T13:05:13;11.80;99.90
21167;DHT22;10741;52.272;9.580;2023-04-24T13:07:39;11.80;99.90
21167;DHT22;10741;52.272;9.580;2023-04-24T13:10:06;11.80;99.90
21167;DHT22;10741;52.272;9.580;2023-04-24T13:12:32;11.80;99.90
21167;DHT22;10741;52.272;9.580;2023-04-24T13:15:07;11.50;99.90
21167;DHT22;10741;52.272;9.580;2023-04-24T13:17:33;11.40;99.90
21167;DHT22;10741;52.272;9.580;2023-04-24T13:19:59;11.40;99.90
21167;DHT22;10741;52.272;9.580;2023-04-24T13:22:25;11.50;99.90
21167;DHT22;10741;52.272;9.580;2023-04-24T13:24:51;11.90;99.90
21167;DHT22;10741;52.272;9.580;2023-04-24T13:27:17;12.10;99.90
21167;DHT22;10741;52.272;9.580;2023-04-24T13:29:43;12.10;99.90
21167;DHT22;10741;52.272;9.580;2023-04-24T13:32:10;11.90;99.90
21167;DHT22;10741;52.272;9.580;2023-04-24T13:34:35;11.70;99.90
21167;DHT22;10741;52.272;9.580;2023-04-24T13:37:02;11.50;99.90
21167;DHT22;10741;52.272;9.580;2023-04-24T13:39:31;11.30;99.90
21167;DHT22;10741;52.272;9.580;2023-04-24T13:41:58;11.10;99.90
21167;DHT22;10741;52.272;9.580;2023-04-24T13:44:25;10.90;99.90
21167;DHT22;10741;52.272;9.580;2023-04-24T13:46:52;10.60;99.90
21167;DHT22;10741;52.272;9.580;2023-04-24T13:49:20;10.40;99.90
21167;DHT22;10741;52.272;9.580;2023-04-24T13:51:46;10.30;99.90
21167;DHT22;10741;52.272;9.580;2023-04-24T13:54:12;10.30;99.90
21167;DHT22;10741;52.272;9.580;2023-04-24T13:56:39;10.30;99.90
21167;DHT22;10741;52.272;9.580;2023-04-24T13:59:05;10.20;99.90
21167;DHT22;10741;52.272;9.580;2023-04-24T14:01:32;10.20;99.90
21167;DHT22;10741;52.272;9.580;2023-04-24T14:03:57;10.30;99.90
21167;DHT22;10741;52.272;9.580;2023-04-24T14:06:23;10.40;99.90
21167;DHT22;10741;52.272;9.580;2023-04-24T14:08:50;10.50;99.90
21167;DHT22;10741;52.272;9.580;2023-04-24T14:11:16;10.30;99.90
21167;DHT22;10741;52.272;9.580;2023-04-24T14:13:42;10.10;99.90
21167;DHT22;10741;52.272;9.580;2023-04-24T14:16:09;10.00;99.90
21167;DHT22;10741;52.272;9.580;2023-04-24T14:18:35;9.90;99.90
21167;DHT22;10741;52.272;9.580;2023-04-24T14:21:02;9.80;99.90
21167;DHT22;10741;52.272;9.580;2023-04-24T14:23:28;9.60;99.90
21167;DHT22;10741;52.272;9.580;2023-04-24T14:25:54;9.30;99.90
21167;DHT22;10741;52.272;9.580;2023-04-24T14:28:20;9.20;99.90
21167;DHT22;10741;52.272;9.580;2023-04-24T14:30:47;9.20;99.90
21167;DHT22;10741;52.272;9.580;2023-04-24T14:33:13;9.10;99.90
21167;DHT22;10741;52.272;9.580;2023-04-24T14:35:42;9.00;99.90
21167;DHT22;10741;52.272;9.580;2023-04-24T14:38:09;9.10;99.90
21167;DHT22;10741;52.272;9.580;2023-04-24T14:40:35;9.10;99.90
21167;DHT22;10741;52.272;9.580;2023-04-24T14:43:01;9.20;99.90
21167;DHT22;10741;52.272;9.580;2023-04-24T14:45:27;9.40;99.90
21167;DHT22;10741;52.272;9.580;2023-04-24T14:47:53;9.50;99.90
21167;DHT22;10741;52.272;9.580;2023-04-24T14:50:19;9.70;99.90
21167;DHT22;10741;52.272;9.580;2023-04-24T14:52:45;9.70;99.90
21167;DHT22;10741;52.272;9.580;2023-04-24T14:55:11;9.60;99.90
21167;DHT22;10741;52.272;9.580;2023-04-24T14:57:37;9.60;99.90
21167;DHT22;10741;52.272;9.580;2023-04-24T15:00:05;9.50;99.90
21167;DHT22;10741;52.272;9.580;2023-04-24T15:02:33;9.40;99.90
21167;DHT22;10741;52.272;9.580;2023-04-24T15:04:59;9.30;99.90
21167;DHT22;10741;52.272;9.580;2023-04-24T15:07:25;9.40;99.90
21167;DHT22;10741;52.272;9.580;2023-04-24T15:09:51;9.50;99.90
21167;DHT22;10741;52.272;9.580;2023-04-24T15:12:17;9.80;99.90
21167;DHT22;10741;52.272;9.580;2023-04-24T15:14:42;10.00;99.90
21167;DHT22;10741;52.272;9.580;2023-04-24T15:17:08;10.10;99.90
21167;DHT22;10741;52.272;9.580;2023-04-24T15:19:34;10.30;99.90
21167;DHT22;10741;52.272;9.580;2023-04-24T15:22:00;10.60;99.90
21167;DHT22;10741;52.272;9.580;2023-04-24T15:24:26;10.70;99.90
21167;DHT22;10741;52.272;9.580;2023-04-24T15:26:51;10.70;99.90
21167;DHT22;10741;52.272;9.580;2023-04-24T15:29:17;10.60;99.90
21167;DHT22;10741;52.272;9.580;2023-04-24T15:31:43;10.70;99.90
21167;DHT22;10741;52.272;9.580;2023-04-24T15:34:08;10.90;99.90
21167;DHT22;10741;52.272;9.580;2023-04-24T15:36:34;10.80;99.90
21167;DHT22;10741;52.272;9.580;2023-04-24T15:39:02;10.80;99.90
21167;DHT22;10741;52.272;9.580;2023-04-24T15:41:28;10.70;99.90
21167;DHT22;10741;52.272;9.580;2023-04-24T15:43:53;10.70;99.90
21167;DHT22;10741;52.272;9.580;2023-04-24T15:46:20;10.60;99.90
21167;DHT22;10741;52.272;9.580;2023-04-24T15:48:45;10.40;99.90
21167;DHT22;10741;52.272;9.580;2023-04-24T15:51:11;10.30;99.90
21167;DHT22;10741;52.272;9.580;2023-04-24T15:53:37;10.30;99.90